sensor_id;sensor_type;location;lat;lon;timestamp;P1;durP1;ratioP1;P2;durP2;ratioP2
13805;SDS011;6974;53.606;9.872;2024-03-06T00:02:14;14.37;;;11.17;;
13805;SDS011;6974;53.606;9.872;2024-03-06T00:04:41;16.93;;;11.93;;
13805;SDS011;6974;53.606;9.872;2024-03-06T00:07:08;15.13;;;11.33;;
13805;SDS011;6974;53.606;9.872;2024-03-06T00:09:35;14.90;;;11.63;;
13805;SDS011;6974;53.606;9.872;2024-03-06T00:12:02;12.70;;;11.23;;
13805;SDS011;6974;53.606;9.872;2024-03-06T00:14:31;12.83;;;10.30;;
13805;SDS011;6974;53.606;9.872;2024-03-06T00:16:58;14.33;;;10.37;;
13805;SDS011;6974;53.606;9.872;2024-03-06T00:19:26;15.33;;;11.37;;
13805;SDS011;6974;53.606;9.872;2024-03-06T00:21:53;14.97;;;10.27;;
13805;SDS011;6974;53.606;9.872;2024-03-06T00:24:20;13.37;;;10.20;;
13805;SDS011;6974;53.606;9.872;2024-03-06T00:26:48;14.70;;;9.80;;
13805;SDS011;6974;53.606;9.872;2024-03-06T00:29:14;12.70;;;9.50;;
13805;SDS011;6974;53.606;9.872;2024-03-06T00:31:42;12.47;;;9.47;;
13805;SDS011;6974;53.606;9.872;2024-03-06T00:34:09;12.10;;;9.63;;
13805;SDS011;6974;53.606;9.872;2024-03-06T00:36:39;12.97;;;9.50;;
13805;SDS011;6974;53.606;9.872;2024-03-06T00:39:07;16.97;;;9.50;;
13805;SDS011;6974;53.606;9.872;2024-03-06T00:41:34;11.30;;;8.77;;
13805;SDS011;6974;53.606;9.872;2024-03-06T00:44:01;11.77;;;9.83;;
13805;SDS011;6974;53.606;9.872;2024-03-06T00:46:28;12.33;;;9.17;;
13805;SDS011;6974;53.606;9.872;2024-03-06T00:48:55;10.83;;;8.93;;
13805;SDS011;6974;53.606;9.872;2024-03-06T00:51:21;10.73;;;8.67;;
13805;SDS011;6974;53.606;9.872;2024-03-06T00:53:49;10.93;;;9.73;;
13805;SDS011;6974;53.606;9.872;2024-03-06T00:56:16;11.63;;;8.40;;
13805;SDS011;6974;53.606;9.872;2024-03-06T00:58:43;9.90;;;8.90;;
13805;SDS011;6974;53.606;9.872;2024-03-06T01:01:10;12.50;;;8.67;;
13805;SDS011;6974;53.606;9.872;2024-03-06T01:03:37;11.33;;;8.97;;
13805;SDS011;6974;53.606;9.872;2024-03-06T01:06:04;9.97;;;8.57;;
13805;SDS011;6974;53.606;9.872;2024-03-06T01:08:31;11.30;;;8.73;;
13805;SDS011;6974;53.606;9.872;2024-03-06T01:10:59;12.13;;;9.07;;
13805;SDS011;6974;53.606;9.872;2024-03-06T01:13:26;10.97;;;8.27;;
13805;SDS011;6974;53.606;9.872;2024-03-06T01:15:52;10.67;;;8.90;;
13805;SDS011;6974;53.606;9.872;2024-03-06T01:18:19;11.13;;;8.87;;
13805;SDS011;6974;53.606;9.872;2024-03-06T01:20:46;11.90;;;9.20;;
13805;SDS011;6974;53.606;9.872;2024-03-06T01:23:13;10.30;;;8.40;;
13805;SDS011;6974;53.606;9.872;2024-03-06T01:25:41;12.83;;;9.10;;
13805;SDS011;6974;53.606;9.872;2024-03-06T01:28:10;11.80;;;8.90;;
13805;SDS011;6974;53.606;9.872;2024-03-06T01:30:36;9.87;;;8.07;;
13805;SDS011;6974;53.606;9.872;2024-03-06T01:33:03;12.43;;;8.83;;
13805;SDS011;6974;53.606;9.872;2024-03-06T01:35:31;14.87;;;9.33;;
13805;SDS011;6974;53.606;9.872;2024-03-06T01:37:58;11.67;;;9.00;;
13805;SDS011;6974;53.606;9.872;2024-03-06T01:40:26;12.33;;;9.10;;
13805;SDS011;6974;53.606;9.872;2024-03-06T01:42:54;10.43;;;8.47;;
13805;SDS011;6974;53.606;9.872;2024-03-06T01:45:22;11.03;;;9.10;;
13805;SDS011;6974;53.606;9.872;2024-03-06T01:47:49;13.07;;;8.87;;
13805;SDS011;6974;53.606;9.872;2024-03-06T01:50:16;10.57;;;9.10;;
13805;SDS011;6974;53.606;9.872;2024-03-06T01:52:43;11.77;;;9.53;;
13805;SDS011;6974;53.606;9.872;2024-03-06T01:55:10;10.40;;;8.73;;
13805;SDS011;6974;53.606;9.872;2024-03-06T01:57:38;11.77;;;9.17;;
13805;SDS011;6974;53.606;9.872;2024-03-06T02:00:07;11.27;;;8.73;;
13805;SDS011;6974;53.606;9.872;2024-03-06T02:02:39;15.43;;;8.87;;
13805;SDS011;6974;53.606;9.872;2024-03-06T02:05:08;9.10;;;8.13;;
13805;SDS011;6974;53.606;9.872;2024-03-06T02:07:35;9.77;;;8.33;;
13805;SDS011;6974;53.606;9.872;2024-03-06T02:10:05;9.53;;;8.53;;
13805;SDS011;6974;53.606;9.872;2024-03-06T02:12:34;12.40;;;8.50;;
13805;SDS011;6974;53.606;9.872;2024-03-06T02:15:02;10.13;;;8.70;;
13805;SDS011;6974;53.606;9.872;2024-03-06T02:17:29;12.37;;;8.37;;
13805;SDS011;6974;53.606;9.872;2024-03-06T02:19:57;11.00;;;8.33;;
13805;SDS011;6974;53.606;9.872;2024-03-06T02:22:25;11.23;;;8.90;;
13805;SDS011;6974;53.606;9.872;2024-03-06T02:24:52;10.60;;;8.27;;
13805;SDS011;6974;53.606;9.872;2024-03-06T02:27:19;10.57;;;8.20;;
13805;SDS011;6974;53.606;9.872;2024-03-06T02:29:46;9.77;;;7.93;;
13805;SDS011;6974;53.606;9.872;2024-03-06T02:32:13;9.97;;;7.50;;
13805;SDS011;6974;53.606;9.872;2024-03-06T02:34:40;11.67;;;8.53;;
13805;SDS011;6974;53.606;9.872;2024-03-06T02:37:06;10.93;;;8.13;;
13805;SDS011;6974;53.606;9.872;2024-03-06T02:39:34;10.80;;;8.03;;
13805;SDS011;6974;53.606;9.872;2024-03-06T02:42:03;9.03;;;7.83;;
13805;SDS011;6974;53.606;9.872;2024-03-06T02:44:29;12.93;;;7.77;;
13805;SDS011;6974;53.606;9.872;2024-03-06T02:46:56;13.50;;;8.37;;
13805;SDS011;6974;53.606;9.872;2024-03-06T02:49:23;8.13;;;7.27;;
13805;SDS011;6974;53.606;9.872;2024-03-06T02:51:50;9.03;;;7.23;;
13805;SDS011;6974;53.606;9.872;2024-03-06T02:54:17;10.87;;;7.63;;
13805;SDS011;6974;53.606;9.872;2024-03-06T02:56:45;9.63;;;7.33;;
13805;SDS011;6974;53.606;9.872;2024-03-06T02:59:12;9.70;;;7.43;;
13805;SDS011;6974;53.606;9.872;2024-03-06T03:01:39;7.93;;;6.97;;
13805;SDS011;6974;53.606;9.872;2024-03-06T03:04:06;8.90;;;7.30;;
13805;SDS011;6974;53.606;9.872;2024-03-06T03:06:32;10.20;;;7.30;;
13805;SDS011;6974;53.606;9.872;2024-03-06T03:08:59;9.30;;;7.23;;
13805;SDS011;6974;53.606;9.872;2024-03-06T03:11:26;8.90;;;6.87;;
13805;SDS011;6974;53.606;9.872;2024-03-06T03:13:54;9.37;;;6.63;;
13805;SDS011;6974;53.606;9.872;2024-03-06T03:16:22;9.83;;;6.67;;
13805;SDS011;6974;53.606;9.872;2024-03-06T03:18:49;7.80;;;6.70;;
13805;SDS011;6974;53.606;9.872;2024-03-06T03:21:15;8.50;;;6.67;;
13805;SDS011;6974;53.606;9.872;2024-03-06T03:23:42;11.23;;;6.60;;
13805;SDS011;6974;53.606;9.872;2024-03-06T03:26:09;9.07;;;7.07;;
13805;SDS011;6974;53.606;9.872;2024-03-06T03:28:37;8.80;;;6.77;;
13805;SDS011;6974;53.606;9.872;2024-03-06T03:31:06;10.43;;;7.30;;
13805;SDS011;6974;53.606;9.872;2024-03-06T03:33:34;7.50;;;6.50;;
13805;SDS011;6974;53.606;9.872;2024-03-06T03:36:03;8.43;;;6.37;;
13805;SDS011;6974;53.606;9.872;2024-03-06T03:38:31;7.33;;;6.37;;
13805;SDS011;6974;53.606;9.872;2024-03-06T03:40:57;9.00;;;6.90;;
13805;SDS011;6974;53.606;9.872;2024-03-06T03:43:24;10.00;;;6.93;;
13805;SDS011;6974;53.606;9.872;2024-03-06T03:45:51;7.80;;;6.30;;
13805;SDS011;6974;53.606;9.872;2024-03-06T03:48:19;8.10;;;6.37;;
13805;SDS011;6974;53.606;9.872;2024-03-06T03:50:46;8.03;;;6.43;;
13805;SDS011;6974;53.606;9.872;2024-03-06T03:53:13;8.60;;;6.10;;
13805;SDS011;6974;53.606;9.872;2024-03-06T03:55:40;9.33;;;6.53;;
13805;SDS011;6974;53.606;9.872;2024-03-06T03:58:08;8.47;;;6.27;;
13805;SDS011;6974;53.606;9.872;2024-03-06T04:00:35;7.20;;;6.40;;
13805;SDS011;6974;53.606;9.872;2024-03-06T04:03:03;8.40;;;6.60;;
13805;SDS011;6974;53.606;9.872;2024-03-06T04:05:31;9.30;;;6.67;;
13805;SDS011;6974;53.606;9.872;2024-03-06T04:07:58;11.13;;;6.43;;
13805;SDS011;6974;53.606;9.872;2024-03-06T04:10:25;7.83;;;5.93;;
13805;SDS011;6974;53.606;9.872;2024-03-06T04:12:52;10.67;;;6.93;;
13805;SDS011;6974;53.606;9.872;2024-03-06T04:15:19;7.87;;;5.73;;
13805;SDS011;6974;53.606;9.872;2024-03-06T04:17:47;6.80;;;5.87;;
13805;SDS011;6974;53.606;9.872;2024-03-06T04:20:13;9.87;;;5.93;;
13805;SDS011;6974;53.606;9.872;2024-03-06T04:22:42;7.77;;;5.87;;
13805;SDS011;6974;53.606;9.872;2024-03-06T04:25:11;8.67;;;6.43;;
13805;SDS011;6974;53.606;9.872;2024-03-06T04:27:38;7.90;;;5.87;;
13805;SDS011;6974;53.606;9.872;2024-03-06T04:30:05;10.00;;;6.23;;
13805;SDS011;6974;53.606;9.872;2024-03-06T04:32:32;9.00;;;6.13;;
13805;SDS011;6974;53.606;9.872;2024-03-06T04:34:59;7.80;;;5.90;;
13805;SDS011;6974;53.606;9.872;2024-03-06T04:37:26;10.63;;;6.60;;
13805;SDS011;6974;53.606;9.872;2024-03-06T04:39:55;9.27;;;6.43;;
13805;SDS011;6974;53.606;9.872;2024-03-06T04:42:22;8.37;;;6.60;;
13805;SDS011;6974;53.606;9.872;2024-03-06T04:44:49;9.27;;;6.37;;
13805;SDS011;6974;53.606;9.872;2024-03-06T04:47:16;13.30;;;11.30;;
13805;SDS011;6974;53.606;9.872;2024-03-06T04:49:44;14.23;;;10.77;;
13805;SDS011;6974;53.606;9.872;2024-03-06T04:52:11;13.73;;;11.10;;
13805;SDS011;6974;53.606;9.872;2024-03-06T04:54:38;11.03;;;8.93;;
13805;SDS011;6974;53.606;9.872;2024-03-06T04:57:06;11.83;;;9.00;;
13805;SDS011;6974;53.606;9.872;2024-03-06T04:59:33;7.60;;;6.87;;
13805;SDS011;6974;53.606;9.872;2024-03-06T05:02:00;9.70;;;7.60;;
13805;SDS011;6974;53.606;9.872;2024-03-06T05:04:28;9.03;;;7.83;;
13805;SDS011;6974;53.606;9.872;2024-03-06T05:06:55;10.77;;;7.83;;
13805;SDS011;6974;53.606;9.872;2024-03-06T05:09:22;9.20;;;7.27;;
13805;SDS011;6974;53.606;9.872;2024-03-06T05:11:48;8.47;;;7.03;;
13805;SDS011;6974;53.606;9.872;2024-03-06T05:14:17;7.70;;;6.90;;
13805;SDS011;6974;53.606;9.872;2024-03-06T05:16:44;10.20;;;6.67;;
13805;SDS011;6974;53.606;9.872;2024-03-06T05:19:11;7.50;;;6.70;;
13805;SDS011;6974;53.606;9.872;2024-03-06T05:21:37;7.70;;;6.57;;
13805;SDS011;6974;53.606;9.872;2024-03-06T05:24:04;7.90;;;6.60;;
13805;SDS011;6974;53.606;9.872;2024-03-06T05:26:31;7.17;;;6.47;;
13805;SDS011;6974;53.606;9.872;2024-03-06T05:28:59;7.10;;;5.87;;
13805;SDS011;6974;53.606;9.872;2024-03-06T05:31:27;10.53;;;6.03;;
13805;SDS011;6974;53.606;9.872;2024-03-06T05:33:55;8.30;;;6.47;;
13805;SDS011;6974;53.606;9.872;2024-03-06T05:36:21;7.90;;;6.40;;
13805;SDS011;6974;53.606;9.872;2024-03-06T05:38:48;7.93;;;6.43;;
13805;SDS011;6974;53.606;9.872;2024-03-06T05:41:15;10.60;;;6.57;;
13805;SDS011;6974;53.606;9.872;2024-03-06T05:43:43;6.90;;;6.20;;
13805;SDS011;6974;53.606;9.872;2024-03-06T05:46:09;6.73;;;6.03;;
13805;SDS011;6974;53.606;9.872;2024-03-06T05:48:38;9.33;;;6.83;;
13805;SDS011;6974;53.606;9.872;2024-03-06T05:51:05;7.87;;;6.57;;
13805;SDS011;6974;53.606;9.872;2024-03-06T05:53:35;9.70;;;7.13;;
13805;SDS011;6974;53.606;9.872;2024-03-06T05:56:03;9.07;;;6.80;;
13805;SDS011;6974;53.606;9.872;2024-03-06T05:58:32;10.20;;;6.77;;
13805;SDS011;6974;53.606;9.872;2024-03-06T06:00:59;7.77;;;6.17;;
13805;SDS011;6974;53.606;9.872;2024-03-06T06:03:26;7.40;;;6.60;;
13805;SDS011;6974;53.606;9.872;2024-03-06T06:05:54;7.87;;;6.40;;
13805;SDS011;6974;53.606;9.872;2024-03-06T06:08:21;7.77;;;6.77;;
13805;SDS011;6974;53.606;9.872;2024-03-06T06:10:49;8.07;;;6.37;;
13805;SDS011;6974;53.606;9.872;2024-03-06T06:13:17;9.53;;;6.43;;
13805;SDS011;6974;53.606;9.872;2024-03-06T06:15:44;7.50;;;6.00;;
13805;SDS011;6974;53.606;9.872;2024-03-06T06:18:11;8.87;;;6.77;;
13805;SDS011;6974;53.606;9.872;2024-03-06T06:20:40;9.17;;;6.83;;
13805;SDS011;6974;53.606;9.872;2024-03-06T06:23:09;9.37;;;6.93;;
13805;SDS011;6974;53.606;9.872;2024-03-06T06:25:35;8.07;;;6.90;;
13805;SDS011;6974;53.606;9.872;2024-03-06T06:28:02;9.37;;;6.87;;
13805;SDS011;6974;53.606;9.872;2024-03-06T06:30:30;10.67;;;7.13;;
13805;SDS011;6974;53.606;9.872;2024-03-06T06:32:58;9.97;;;6.97;;
13805;SDS011;6974;53.606;9.872;2024-03-06T06:35:25;8.27;;;7.03;;
13805;SDS011;6974;53.606;9.872;2024-03-06T06:37:52;14.10;;;7.63;;
13805;SDS011;6974;53.606;9.872;2024-03-06T06:40:20;14.43;;;7.57;;
13805;SDS011;6974;53.606;9.872;2024-03-06T06:42:47;10.27;;;7.87;;
13805;SDS011;6974;53.606;9.872;2024-03-06T06:45:15;13.27;;;8.57;;
13805;SDS011;6974;53.606;9.872;2024-03-06T06:47:43;10.50;;;8.73;;
13805;SDS011;6974;53.606;9.872;2024-03-06T06:50:10;11.13;;;8.77;;
13805;SDS011;6974;53.606;9.872;2024-03-06T06:52:36;12.33;;;8.70;;
13805;SDS011;6974;53.606;9.872;2024-03-06T06:55:04;11.73;;;8.70;;
13805;SDS011;6974;53.606;9.872;2024-03-06T06:57:32;10.00;;;8.17;;
13805;SDS011;6974;53.606;9.872;2024-03-06T07:00:00;9.50;;;8.20;;
13805;SDS011;6974;53.606;9.872;2024-03-06T07:02:28;13.10;;;7.93;;
13805;SDS011;6974;53.606;9.872;2024-03-06T07:04:55;10.37;;;8.37;;
13805;SDS011;6974;53.606;9.872;2024-03-06T07:07:22;11.77;;;8.17;;
13805;SDS011;6974;53.606;9.872;2024-03-06T07:09:49;12.53;;;7.97;;
13805;SDS011;6974;53.606;9.872;2024-03-06T07:12:16;9.77;;;8.20;;
13805;SDS011;6974;53.606;9.872;2024-03-06T07:14:45;9.97;;;8.53;;
13805;SDS011;6974;53.606;9.872;2024-03-06T07:17:12;9.53;;;7.90;;
13805;SDS011;6974;53.606;9.872;2024-03-06T07:19:39;9.07;;;8.10;;
13805;SDS011;6974;53.606;9.872;2024-03-06T07:22:06;10.70;;;8.03;;
13805;SDS011;6974;53.606;9.872;2024-03-06T07:24:32;8.83;;;7.93;;
13805;SDS011;6974;53.606;9.872;2024-03-06T07:26:59;9.43;;;8.10;;
13805;SDS011;6974;53.606;9.872;2024-03-06T07:29:26;10.37;;;7.83;;
13805;SDS011;6974;53.606;9.872;2024-03-06T07:31:54;8.60;;;7.50;;
13805;SDS011;6974;53.606;9.872;2024-03-06T07:34:21;8.43;;;7.57;;
13805;SDS011;6974;53.606;9.872;2024-03-06T07:36:48;9.67;;;8.07;;
13805;SDS011;6974;53.606;9.872;2024-03-06T07:39:15;8.00;;;7.20;;
13805;SDS011;6974;53.606;9.872;2024-03-06T07:41:42;8.60;;;7.43;;
13805;SDS011;6974;53.606;9.872;2024-03-06T07:44:09;9.63;;;7.53;;
13805;SDS011;6974;53.606;9.872;2024-03-06T07:46:36;8.10;;;7.30;;
13805;SDS011;6974;53.606;9.872;2024-03-06T07:49:04;7.77;;;6.97;;
13805;SDS011;6974;53.606;9.872;2024-03-06T07:51:31;7.97;;;7.17;;
13805;SDS011;6974;53.606;9.872;2024-03-06T07:53:58;8.03;;;7.23;;
13805;SDS011;6974;53.606;9.872;2024-03-06T07:56:25;9.10;;;6.90;;
13805;SDS011;6974;53.606;9.872;2024-03-06T07:58:53;8.27;;;7.00;;
13805;SDS011;6974;53.606;9.872;2024-03-06T08:01:20;8.83;;;7.27;;
13805;SDS011;6974;53.606;9.872;2024-03-06T08:03:47;7.63;;;6.13;;
13805;SDS011;6974;53.606;9.872;2024-03-06T08:06:16;16.77;;;7.93;;
13805;SDS011;6974;53.606;9.872;2024-03-06T08:08:44;10.27;;;7.37;;
13805;SDS011;6974;53.606;9.872;2024-03-06T08:11:12;7.87;;;6.63;;
13805;SDS011;6974;53.606;9.872;2024-03-06T08:13:39;8.60;;;7.13;;
13805;SDS011;6974;53.606;9.872;2024-03-06T08:16:06;7.50;;;6.60;;
13805;SDS011;6974;53.606;9.872;2024-03-06T08:18:34;8.20;;;6.90;;
13805;SDS011;6974;53.606;9.872;2024-03-06T08:21:03;8.67;;;7.37;;
13805;SDS011;6974;53.606;9.872;2024-03-06T08:23:33;8.07;;;6.73;;
13805;SDS011;6974;53.606;9.872;2024-03-06T08:26:00;8.33;;;7.37;;
13805;SDS011;6974;53.606;9.872;2024-03-06T08:28:26;9.47;;;6.63;;
13805;SDS011;6974;53.606;9.872;2024-03-06T08:30:53;6.97;;;6.27;;
13805;SDS011;6974;53.606;9.872;2024-03-06T08:33:20;8.00;;;7.20;;
13805;SDS011;6974;53.606;9.872;2024-03-06T08:35:47;8.60;;;7.10;;
13805;SDS011;6974;53.606;9.872;2024-03-06T08:38:14;8.23;;;7.27;;
13805;SDS011;6974;53.606;9.872;2024-03-06T08:40:43;8.37;;;7.03;;
13805;SDS011;6974;53.606;9.872;2024-03-06T08:45:46;8.70;;;6.73;;
13805;SDS011;6974;53.606;9.872;2024-03-06T08:48:15;8.87;;;6.67;;
13805;SDS011;6974;53.606;9.872;2024-03-06T08:50:43;10.70;;;7.10;;
13805;SDS011;6974;53.606;9.872;2024-03-06T08:53:10;8.27;;;7.10;;
13805;SDS011;6974;53.606;9.872;2024-03-06T08:55:39;7.70;;;6.80;;
13805;SDS011;6974;53.606;9.872;2024-03-06T08:58:07;8.33;;;6.97;;
13805;SDS011;6974;53.606;9.872;2024-03-06T09:00:35;9.13;;;6.87;;
13805;SDS011;6974;53.606;9.872;2024-03-06T09:03:02;7.80;;;6.10;;
13805;SDS011;6974;53.606;9.872;2024-03-06T09:05:38;8.07;;;6.60;;
13805;SDS011;6974;53.606;9.872;2024-03-06T09:08:06;7.73;;;6.33;;
13805;SDS011;6974;53.606;9.872;2024-03-06T09:10:34;7.87;;;7.03;;
13805;SDS011;6974;53.606;9.872;2024-03-06T09:13:02;7.03;;;6.37;;
13805;SDS011;6974;53.606;9.872;2024-03-06T09:15:31;7.10;;;6.33;;
13805;SDS011;6974;53.606;9.872;2024-03-06T09:18:01;7.80;;;5.93;;
13805;SDS011;6974;53.606;9.872;2024-03-06T09:20:28;7.57;;;6.50;;
13805;SDS011;6974;53.606;9.872;2024-03-06T09:22:58;7.67;;;6.37;;
13805;SDS011;6974;53.606;9.872;2024-03-06T09:25:25;9.27;;;6.97;;
13805;SDS011;6974;53.606;9.872;2024-03-06T09:27:52;7.53;;;6.53;;
13805;SDS011;6974;53.606;9.872;2024-03-06T09:30:19;9.33;;;7.30;;
13805;SDS011;6974;53.606;9.872;2024-03-06T09:32:49;9.07;;;7.60;;
13805;SDS011;6974;53.606;9.872;2024-03-06T09:35:16;8.73;;;6.93;;
13805;SDS011;6974;53.606;9.872;2024-03-06T09:37:44;8.30;;;6.87;;
13805;SDS011;6974;53.606;9.872;2024-03-06T09:40:17;8.07;;;6.60;;
13805;SDS011;6974;53.606;9.872;2024-03-06T09:42:48;9.47;;;6.93;;
13805;SDS011;6974;53.606;9.872;2024-03-06T09:45:15;10.57;;;7.70;;
13805;SDS011;6974;53.606;9.872;2024-03-06T09:47:42;9.97;;;8.10;;
13805;SDS011;6974;53.606;9.872;2024-03-06T09:50:11;10.50;;;8.50;;
13805;SDS011;6974;53.606;9.872;2024-03-06T09:52:43;9.67;;;8.27;;
13805;SDS011;6974;53.606;9.872;2024-03-06T09:55:11;9.13;;;7.37;;
13805;SDS011;6974;53.606;9.872;2024-03-06T09:57:40;10.60;;;7.83;;
13805;SDS011;6974;53.606;9.872;2024-03-06T10:00:07;9.67;;;8.10;;
13805;SDS011;6974;53.606;9.872;2024-03-06T10:02:38;12.57;;;8.40;;
13805;SDS011;6974;53.606;9.872;2024-03-06T10:05:20;9.00;;;7.97;;
13805;SDS011;6974;53.606;9.872;2024-03-06T10:07:48;9.70;;;8.53;;
13805;SDS011;6974;53.606;9.872;2024-03-06T10:10:16;10.57;;;7.77;;
13805;SDS011;6974;53.606;9.872;2024-03-06T10:12:44;11.43;;;10.03;;
13805;SDS011;6974;53.606;9.872;2024-03-06T10:15:13;13.90;;;10.27;;
13805;SDS011;6974;53.606;9.872;2024-03-06T10:17:51;10.63;;;9.50;;
13805;SDS011;6974;53.606;9.872;2024-03-06T10:20:21;10.50;;;9.50;;
13805;SDS011;6974;53.606;9.872;2024-03-06T10:22:49;11.30;;;9.83;;
13805;SDS011;6974;53.606;9.872;2024-03-06T10:25:18;9.50;;;8.60;;
13805;SDS011;6974;53.606;9.872;2024-03-06T10:27:46;11.17;;;8.87;;
13805;SDS011;6974;53.606;9.872;2024-03-06T10:30:27;10.23;;;8.63;;
13805;SDS011;6974;53.606;9.872;2024-03-06T10:32:54;10.27;;;9.20;;
13805;SDS011;6974;53.606;9.872;2024-03-06T10:35:22;10.93;;;9.13;;
13805;SDS011;6974;53.606;9.872;2024-03-06T10:37:51;10.97;;;8.87;;
13805;SDS011;6974;53.606;9.872;2024-03-06T10:40:22;10.53;;;7.93;;
13805;SDS011;6974;53.606;9.872;2024-03-06T10:42:50;11.10;;;9.10;;
13805;SDS011;6974;53.606;9.872;2024-03-06T10:45:18;11.63;;;9.37;;
13805;SDS011;6974;53.606;9.872;2024-03-06T10:47:50;10.30;;;9.20;;
13805;SDS011;6974;53.606;9.872;2024-03-06T10:50:19;10.23;;;9.13;;
13805;SDS011;6974;53.606;9.872;2024-03-06T10:52:48;9.97;;;8.97;;
13805;SDS011;6974;53.606;9.872;2024-03-06T10:55:20;11.37;;;9.30;;
13805;SDS011;6974;53.606;9.872;2024-03-06T10:57:50;10.00;;;8.57;;
13805;SDS011;6974;53.606;9.872;2024-03-06T11:00:22;11.13;;;8.97;;
13805;SDS011;6974;53.606;9.872;2024-03-06T11:02:52;9.77;;;8.40;;
13805;SDS011;6974;53.606;9.872;2024-03-06T11:05:20;10.10;;;8.80;;
13805;SDS011;6974;53.606;9.872;2024-03-06T11:07:49;10.97;;;9.23;;
13805;SDS011;6974;53.606;9.872;2024-03-06T11:10:29;13.33;;;9.47;;
13805;SDS011;6974;53.606;9.872;2024-03-06T11:12:57;9.70;;;8.67;;
13805;SDS011;6974;53.606;9.872;2024-03-06T11:15:24;9.90;;;8.90;;
13805;SDS011;6974;53.606;9.872;2024-03-06T11:17:51;10.03;;;8.70;;
13805;SDS011;6974;53.606;9.872;2024-03-06T11:20:20;9.83;;;8.83;;
13805;SDS011;6974;53.606;9.872;2024-03-06T11:23:08;8.97;;;8.07;;
13805;SDS011;6974;53.606;9.872;2024-03-06T11:28:30;10.93;;;9.17;;
13805;SDS011;6974;53.606;9.872;2024-03-06T11:30:58;9.83;;;8.80;;
13805;SDS011;6974;53.606;9.872;2024-03-06T11:33:36;10.80;;;9.60;;
13805;SDS011;6974;53.606;9.872;2024-03-06T11:36:18;12.43;;;9.87;;
13805;SDS011;6974;53.606;9.872;2024-03-06T11:38:48;11.80;;;9.57;;
13805;SDS011;6974;53.606;9.872;2024-03-06T11:41:18;11.30;;;9.87;;
13805;SDS011;6974;53.606;9.872;2024-03-06T11:43:49;10.27;;;8.67;;
13805;SDS011;6974;53.606;9.872;2024-03-06T11:46:18;12.37;;;9.57;;
13805;SDS011;6974;53.606;9.872;2024-03-06T11:48:53;10.27;;;8.80;;
13805;SDS011;6974;53.606;9.872;2024-03-06T11:51:23;12.27;;;9.30;;
13805;SDS011;6974;53.606;9.872;2024-03-06T11:53:52;10.40;;;9.13;;
13805;SDS011;6974;53.606;9.872;2024-03-06T11:56:21;15.40;;;8.97;;
13805;SDS011;6974;53.606;9.872;2024-03-06T11:58:48;11.17;;;9.07;;
13805;SDS011;6974;53.606;9.872;2024-03-06T12:01:14;10.97;;;8.90;;
13805;SDS011;6974;53.606;9.872;2024-03-06T12:03:43;11.50;;;9.70;;
13805;SDS011;6974;53.606;9.872;2024-03-06T12:06:11;11.50;;;9.80;;
13805;SDS011;6974;53.606;9.872;2024-03-06T12:08:39;12.07;;;10.43;;
13805;SDS011;6974;53.606;9.872;2024-03-06T12:11:07;12.30;;;10.13;;
13805;SDS011;6974;53.606;9.872;2024-03-06T12:13:34;11.63;;;9.97;;
13805;SDS011;6974;53.606;9.872;2024-03-06T12:16:05;10.73;;;8.57;;
13805;SDS011;6974;53.606;9.872;2024-03-06T12:18:32;11.53;;;8.87;;
13805;SDS011;6974;53.606;9.872;2024-03-06T12:21:01;9.60;;;8.53;;
13805;SDS011;6974;53.606;9.872;2024-03-06T12:23:29;9.77;;;8.83;;
13805;SDS011;6974;53.606;9.872;2024-03-06T12:26:02;10.17;;;8.93;;
13805;SDS011;6974;53.606;9.872;2024-03-06T12:28:32;10.30;;;9.00;;
13805;SDS011;6974;53.606;9.872;2024-03-06T12:31:02;10.77;;;9.10;;
13805;SDS011;6974;53.606;9.872;2024-03-06T12:33:29;10.83;;;9.20;;
13805;SDS011;6974;53.606;9.872;2024-03-06T12:36:01;14.40;;;9.23;;
13805;SDS011;6974;53.606;9.872;2024-03-06T12:38:30;12.00;;;8.90;;
13805;SDS011;6974;53.606;9.872;2024-03-06T12:40:57;12.20;;;10.33;;
13805;SDS011;6974;53.606;9.872;2024-03-06T12:43:27;9.83;;;8.60;;
13805;SDS011;6974;53.606;9.872;2024-03-06T12:45:56;11.17;;;8.67;;
13805;SDS011;6974;53.606;9.872;2024-03-06T12:48:23;9.23;;;8.23;;
13805;SDS011;6974;53.606;9.872;2024-03-06T12:50:58;10.60;;;8.87;;
13805;SDS011;6974;53.606;9.872;2024-03-06T12:53:29;12.30;;;8.70;;
13805;SDS011;6974;53.606;9.872;2024-03-06T12:55:58;10.13;;;8.83;;
13805;SDS011;6974;53.606;9.872;2024-03-06T12:58:25;10.80;;;9.20;;
13805;SDS011;6974;53.606;9.872;2024-03-06T13:00:52;12.40;;;9.10;;
13805;SDS011;6974;53.606;9.872;2024-03-06T13:03:21;10.13;;;8.93;;
13805;SDS011;6974;53.606;9.872;2024-03-06T13:05:49;9.43;;;8.47;;
13805;SDS011;6974;53.606;9.872;2024-03-06T13:08:16;10.47;;;8.93;;
13805;SDS011;6974;53.606;9.872;2024-03-06T13:10:43;11.13;;;8.50;;
13805;SDS011;6974;53.606;9.872;2024-03-06T13:13:10;12.73;;;8.60;;
13805;SDS011;6974;53.606;9.872;2024-03-06T13:15:37;11.43;;;8.57;;
13805;SDS011;6974;53.606;9.872;2024-03-06T13:18:04;8.50;;;7.63;;
13805;SDS011;6974;53.606;9.872;2024-03-06T13:20:33;10.13;;;8.90;;
13805;SDS011;6974;53.606;9.872;2024-03-06T13:23:00;11.00;;;8.67;;
13805;SDS011;6974;53.606;9.872;2024-03-06T13:25:27;8.87;;;7.70;;
13805;SDS011;6974;53.606;9.872;2024-03-06T13:27:54;9.63;;;7.90;;
13805;SDS011;6974;53.606;9.872;2024-03-06T13:30:24;9.20;;;8.27;;
13805;SDS011;6974;53.606;9.872;2024-03-06T13:32:53;10.30;;;7.93;;
13805;SDS011;6974;53.606;9.872;2024-03-06T13:35:21;10.83;;;7.73;;
13805;SDS011;6974;53.606;9.872;2024-03-06T13:37:51;9.07;;;7.23;;
13805;SDS011;6974;53.606;9.872;2024-03-06T13:40:20;8.80;;;7.77;;
13805;SDS011;6974;53.606;9.872;2024-03-06T13:42:48;8.97;;;7.87;;
13805;SDS011;6974;53.606;9.872;2024-03-06T13:45:15;9.33;;;7.57;;
13805;SDS011;6974;53.606;9.872;2024-03-06T13:47:43;10.57;;;8.43;;
13805;SDS011;6974;53.606;9.872;2024-03-06T13:50:11;8.63;;;7.73;;
13805;SDS011;6974;53.606;9.872;2024-03-06T13:52:39;9.97;;;7.70;;
13805;SDS011;6974;53.606;9.872;2024-03-06T13:55:08;9.97;;;7.90;;
13805;SDS011;6974;53.606;9.872;2024-03-06T13:57:36;9.57;;;7.93;;
13805;SDS011;6974;53.606;9.872;2024-03-06T14:00:05;10.40;;;8.10;;
13805;SDS011;6974;53.606;9.872;2024-03-06T14:02:37;9.03;;;8.13;;
13805;SDS011;6974;53.606;9.872;2024-03-06T14:05:04;11.23;;;8.97;;
13805;SDS011;6974;53.606;9.872;2024-03-06T14:07:33;9.40;;;8.00;;
13805;SDS011;6974;53.606;9.872;2024-03-06T14:10:00;9.40;;;7.87;;
13805;SDS011;6974;53.606;9.872;2024-03-06T14:12:29;9.47;;;7.83;;
13805;SDS011;6974;53.606;9.872;2024-03-06T14:14:55;8.87;;;7.97;;
13805;SDS011;6974;53.606;9.872;2024-03-06T14:17:23;9.53;;;7.97;;
13805;SDS011;6974;53.606;9.872;2024-03-06T14:19:50;10.27;;;8.53;;
13805;SDS011;6974;53.606;9.872;2024-03-06T14:22:17;8.90;;;7.80;;
13805;SDS011;6974;53.606;9.872;2024-03-06T14:24:44;9.27;;;8.37;;
13805;SDS011;6974;53.606;9.872;2024-03-06T14:27:11;9.37;;;7.77;;
13805;SDS011;6974;53.606;9.872;2024-03-06T14:29:40;10.00;;;7.33;;
13805;SDS011;6974;53.606;9.872;2024-03-06T14:32:07;8.37;;;7.47;;
13805;SDS011;6974;53.606;9.872;2024-03-06T14:34:34;10.10;;;7.70;;
13805;SDS011;6974;53.606;9.872;2024-03-06T14:37:08;9.23;;;8.23;;
13805;SDS011;6974;53.606;9.872;2024-03-06T14:39:35;8.13;;;6.67;;
13805;SDS011;6974;53.606;9.872;2024-03-06T14:42:03;10.73;;;6.90;;
13805;SDS011;6974;53.606;9.872;2024-03-06T14:44:35;9.33;;;7.10;;
13805;SDS011;6974;53.606;9.872;2024-03-06T14:47:03;7.50;;;6.73;;
13805;SDS011;6974;53.606;9.872;2024-03-06T14:49:32;6.83;;;6.13;;
13805;SDS011;6974;53.606;9.872;2024-03-06T14:51:59;7.80;;;7.00;;
13805;SDS011;6974;53.606;9.872;2024-03-06T14:54:27;9.20;;;7.13;;
13805;SDS011;6974;53.606;9.872;2024-03-06T14:56:55;12.10;;;6.43;;
13805;SDS011;6974;53.606;9.872;2024-03-06T14:59:22;9.30;;;7.70;;
13805;SDS011;6974;53.606;9.872;2024-03-06T15:01:49;8.17;;;7.23;;
13805;SDS011;6974;53.606;9.872;2024-03-06T15:04:17;10.33;;;7.50;;